Time;durP1;ratioP1;P1;durP2;ratioP2;P2;SDS_P1;SDS_P2;PMS_P1;PMS_P2;Temp;Humidity;BMP_temperature;BMP_pressure;BME280_temperature;BME280_humidity;BME280_pressure;Samples;Min_cycle;Max_cycle;Signal;HPM_P1;HPM_P2
2022/05/20 00:00:06;;;;;;;4.85;3.22;;;14.60;91.60;;;;;;2042819;29;21425;-93
2022/05/20 00:01:26;;;;;;;6.13;3.50;;;14.60;91.60;;;;;;2051433;28;20507;-93
2022/05/20 00:02:49;;;;;;;5.65;3.58;;;14.60;91.60;;;;;;2050568;28;20122;-93
2022/05/20 00:04:08;;;;;;;5.68;3.33;;;14.60;91.60;;;;;;2056172;28;20035;-94
2022/05/20 00:05:28;;;;;;;5.68;3.33;;;14.60;91.70;;;;;;2045970;28;20039;-93
2022/05/20 00:06:47;;;;;;;5.55;3.65;;;14.60;91.70;;;;;;2057120;28;20050;-93
2022/05/20 00:08:07;;;;;;;5.15;3.22;;;14.60;91.70;;;;;;2070080;28;20038;-93
2022/05/20 00:09:27;;;;;;;5.50;3.38;;;14.60;91.70;;;;;;2058295;28;20079;-94
2022/05/20 00:10:46;;;;;;;5.75;3.50;;;14.60;91.70;;;;;;2053285;28;20035;-93
2022/05/20 00:12:06;;;;;;;5.20;3.53;;;14.60;91.70;;;;;;2041692;29;20130;-93
2022/05/20 00:13:27;;;;;;;5.65;3.83;;;14.60;91.70;;;;;;2048530;28;20082;-93
2022/05/20 00:14:47;;;;;;;6.40;3.33;;;14.60;91.70;;;;;;2054250;28;20047;-93
2022/05/20 00:16:06;;;;;;;5.50;3.40;;;14.50;91.70;;;;;;2051993;28;20502;-93
2022/05/20 00:17:26;;;;;;;6.10;3.83;;;14.50;91.70;;;;;;2053356;28;20100;-93
2022/05/20 00:18:45;;;;;;;6.28;4.07;;;14.60;91.70;;;;;;2046471;29;20043;-93
2022/05/20 00:20:06;;;;;;;6.15;3.75;;;14.50;91.70;;;;;;2054319;28;20549;-94
2022/05/20 00:21:25;;;;;;;7.65;4.18;;;14.50;91.70;;;;;;2063330;28;20026;-93
2022/05/20 00:22:45;;;;;;;7.25;3.65;;;14.50;91.70;;;;;;2062430;28;20035;-94
2022/05/20 00:24:05;;;;;;;7.47;3.70;;;14.50;91.70;;;;;;2070663;28;20430;-93
2022/05/20 00:27:03;;;;;;;5.60;3.70;;;14.50;91.70;;;;;;2058471;28;20420;-93
2022/05/20 00:28:28;;;;;;;5.20;3.63;;;14.50;91.70;;;;;;2063190;28;20038;-93
2022/05/20 00:29:47;;;;;;;5.93;3.60;;;14.50;91.80;;;;;;2049943;29;20035;-92
2022/05/20 00:31:10;;;;;;;5.80;3.60;;;14.40;91.70;;;;;;2044191;29;20039;-92
2022/05/20 00:32:29;;;;;;;6.40;3.60;;;14.40;91.70;;;;;;2054788;28;20074;-93
2022/05/20 00:33:48;;;;;;;5.07;3.47;;;14.40;91.80;;;;;;2042797;29;20040;-92
2022/05/20 00:35:09;;;;;;;6.60;4.07;;;14.40;91.80;;;;;;2048243;28;20431;-94
2022/05/20 00:36:28;;;;;;;;;;;14.40;91.80;;;;;;2053276;28;20165;-93
2022/05/20 00:37:48;;;;;;;4.47;2.88;;;14.40;91.70;;;;;;2048612;28;19919;-93
2022/05/20 00:39:07;;;;;;;5.38;3.40;;;14.40;91.70;;;;;;2046060;28;20054;-93
2022/05/20 00:40:28;;;;;;;6.43;3.50;;;14.40;91.70;;;;;;2054683;28;20042;-93
2022/05/20 00:41:48;;;;;;;5.45;3.50;;;14.40;91.80;;;;;;2051025;28;20039;-93
2022/05/20 00:43:10;;;;;;;5.38;3.70;;;14.30;91.70;;;;;;2048967;28;20035;-93
2022/05/20 00:44:29;;;;;;;4.88;3.40;;;14.30;91.70;;;;;;2049807;28;20518;-93
2022/05/20 00:45:48;;;;;;;5.53;3.80;;;14.30;91.70;;;;;;2063319;28;20038;-92
2022/05/20 00:47:09;;;;;;;6.28;4.10;;;14.40;91.80;;;;;;2042030;29;20044;-94
2022/05/20 00:48:30;;;;;;;5.75;3.42;;;14.30;91.70;;;;;;2040218;29;20429;-95
2022/05/20 00:49:52;;;;;;;6.57;3.90;;;14.30;91.80;;;;;;2052442;28;20524;-94
2022/05/20 00:51:27;;;;;;;6.53;3.92;;;14.30;91.80;;;;;;2054919;28;20122;-95
2022/05/20 00:52:49;;;;;;;6.78;3.65;;;14.40;91.80;;;;;;2059214;28;20047;-95
2022/05/20 00:54:25;;;;;;;5.07;3.55;;;14.30;91.80;;;;;;2056057;28;20519;-94
2022/05/20 00:55:45;;;;;;;5.22;3.33;;;14.30;91.70;;;;;;2051259;29;20035;-95
2022/05/20 00:57:15;;;;;;;5.68;3.80;;;14.30;91.70;;;;;;2037169;29;20040;-94
2022/05/20 00:58:34;;;;;;;6.65;3.90;;;14.30;91.70;;;;;;2052420;28;20420;-94
2022/05/20 01:00:05;;;;;;;4.97;3.33;;;14.30;91.80;;;;;;2042888;29;20043;-95
2022/05/20 01:01:26;;;;;;;4.90;3.42;;;14.20;91.80;;;;;;2055577;28;20034;-95
2022/05/20 01:02:47;;;;;;;5.63;3.25;;;14.20;91.80;;;;;;2064700;28;20050;-94
2022/05/20 01:04:06;;;;;;;6.05;3.63;;;14.20;91.80;;;;;;2052767;28;20031;-95
2022/05/20 01:05:35;;;;;;;5.95;3.40;;;14.20;91.80;;;;;;2067113;28;20074;-95
2022/05/20 01:06:55;;;;;;;5.35;3.70;;;14.20;91.80;;;;;;2058642;28;20038;-94
2022/05/20 01:08:18;;;;;;;7.03;3.75;;;14.20;91.80;;;;;;2048085;28;20043;-94
2022/05/20 01:09:38;;;;;;;6.93;3.67;;;14.20;91.80;;;;;;2053740;28;20043;-94
2022/05/20 01:10:58;;;;;;;4.78;3.50;;;14.20;91.80;;;;;;2043664;29;20044;-95
2022/05/20 01:12:18;;;;;;;5.35;3.58;;;14.20;91.80;;;;;;2057774;28;20043;-94
2022/05/20 01:13:39;;;;;;;5.85;3.60;;;14.20;91.80;;;;;;2054032;28;20047;-95
2022/05/20 01:14:58;;;;;;;6.55;3.70;;;14.20;91.70;;;;;;2045602;28;20423;-95
2022/05/20 01:16:18;;;;;;;5.50;3.40;;;14.10;91.80;;;;;;2048213;29;20503;-94
2022/05/20 01:17:39;;;;;;;5.97;3.72;;;14.20;91.80;;;;;;2045899;28;20048;-95
2022/05/20 01:19:01;;;;;;;6.00;3.80;;;14.10;91.80;;;;;;2047778;29;20504;-95
2022/05/20 01:20:24;;;;;;;6.18;3.80;;;14.10;91.80;;;;;;2045456;29;20422;-94
2022/05/20 01:21:43;;;;;;;5.03;3.67;;;14.10;91.80;;;;;;2050521;28;20031;-94
2022/05/20 01:23:10;;;;;;;5.43;3.40;;;14.00;91.80;;;;;;2047121;28;20043;-95
2022/05/20 01:24:29;;;;;;;7.05;3.95;;;14.00;91.90;;;;;;2043151;29;20492;-95
2022/05/20 01:25:51;;;;;;;6.25;3.67;;;14.00;91.90;;;;;;2047533;29;20039;-94
2022/05/20 01:27:10;;;;;;;7.72;3.97;;;14.00;91.90;;;;;;2050094;29;20027;-93
2022/05/20 01:28:31;;;;;;;5.60;3.65;;;14.00;91.90;;;;;;2041038;29;20035;-94
2022/05/20 01:29:50;;;;;;;;;;;14.00;91.90;;;;;;2069252;28;20034;-94
2022/05/20 01:31:14;;;;;;;5.28;3.38;;;14.00;91.90;;;;;;2055769;28;20244;-94
2022/05/20 01:32:33;;;;;;;5.53;3.47;;;14.00;91.80;;;;;;2047930;28;20031;-94
2022/05/20 01:33:53;;;;;;;4.97;3.40;;;14.00;91.80;;;;;;2046222;28;20079;-95
2022/05/20 01:35:34;;;;;;;5.78;3.70;;;14.00;91.80;;;;;;2050451;29;20114;-94
2022/05/20 01:36:53;;;;;;;7.15;3.92;;;14.00;91.80;;;;;;2056709;28;20162;-95
2022/05/20 01:38:13;;;;;;;6.45;4.10;;;14.00;91.80;;;;;;2040139;29;20082;-94
2022/05/20 01:39:32;;;;;;;5.47;3.67;;;14.00;91.80;;;;;;2044729;29;20047;-95
2022/05/20 01:40:57;;;;;;;8.63;4.22;;;14.00;91.80;;;;;;2043933;29;20039;-94
2022/05/20 01:42:23;;;;;;;5.55;3.70;;;14.00;91.80;;;;;;2054169;28;20031;-94
2022/05/20 01:44:11;;;;;;;5.88;3.65;;;14.00;91.80;;;;;;2044704;29;20047;-94
2022/05/20 01:45:55;;;;;;;5.75;3.35;;;14.00;91.80;;;;;;2049725;29;20039;-94
2022/05/20 01:47:44;;;;;;;6.03;3.78;;;14.00;91.80;;;;;;2053326;28;20058;-94
2022/05/20 01:49:06;;;;;;;5.72;3.40;;;14.00;91.80;;;;;;2032894;29;20067;-94
2022/05/20 01:50:31;;;;;;;6.20;3.70;;;14.00;91.80;;;;;;2046466;28;20050;-94
2022/05/20 01:52:12;;;;;;;5.90;3.85;;;14.00;91.80;;;;;;2052287;28;20042;-94
2022/05/20 01:53:47;;;;;;;6.03;3.75;;;14.00;91.80;;;;;;2071869;28;20025;-94
2022/05/20 01:55:12;;;;;;;6.55;4.15;;;13.90;91.80;;;;;;2049979;28;20127;-94
2022/05/20 01:56:38;;;;;;;6.38;3.70;;;13.90;91.90;;;;;;2056378;28;20042;-94
2022/05/20 01:58:08;;;;;;;5.40;3.47;;;13.90;91.90;;;;;;2052485;28;20463;-94
2022/05/20 01:59:37;;;;;;;7.07;4.15;;;13.90;91.90;;;;;;2049274;29;20035;-94
2022/05/20 02:00:59;;;;;;;6.63;3.90;;;13.80;92.00;;;;;;2063522;28;20045;-94
2022/05/20 02:02:32;;;;;;;6.32;4.20;;;13.90;92.00;;;;;;2053726;28;20083;-95
2022/05/20 02:03:59;;;;;;;7.03;3.92;;;13.90;91.90;;;;;;2042598;28;20039;-95
2022/05/20 02:05:24;;;;;;;5.60;3.70;;;13.90;92.00;;;;;;2053368;28;20054;-94
2022/05/20 02:06:49;;;;;;;6.22;4.15;;;13.80;91.90;;;;;;2042390;29;20508;-95
2022/05/20 02:08:15;;;;;;;6.30;4.22;;;13.80;92.00;;;;;;2047947;28;20040;-94
2022/05/20 02:09:44;;;;;;;4.88;3.53;;;13.80;92.00;;;;;;2060221;28;20039;-94
2022/05/20 02:11:09;;;;;;;6.30;4.30;;;13.70;92.00;;;;;;2049742;28;20035;-94
2022/05/20 02:12:36;;;;;;;5.82;4.10;;;13.70;92.10;;;;;;2045345;28;20031;-95
2022/05/20 02:14:23;;;;;;;6.30;4.10;;;13.60;92.10;;;;;;2040487;29;20096;-95
2022/05/20 02:15:47;;;;;;;4.78;3.42;;;13.60;92.20;;;;;;2050220;28;20039;-94
2022/05/20 02:17:14;;;;;;;6.72;3.95;;;13.50;92.30;;;;;;2045593;28;20051;-95
2022/05/20 02:18:42;;;;;;;6.63;3.97;;;13.60;92.30;;;;;;2056361;28;20503;-95
2022/05/20 02:20:13;;;;;;;6.97;4.00;;;13.50;92.30;;;;;;2064753;28;20038;-94
2022/05/20 02:21:36;;;;;;;7.07;4.30;;;13.50;92.30;;;;;;2050774;28;20031;-95
2022/05/20 02:23:02;;;;;;;7.28;4.28;;;13.50;92.30;;;;;;2060559;28;20628;-95
2022/05/20 02:24:26;;;;;;;5.43;3.88;;;13.50;92.40;;;;;;2048886;29;20071;-94
2022/05/20 02:25:50;;;;;;;6.10;4.22;;;13.50;92.30;;;;;;2050560;29;20043;-94
2022/05/20 02:27:20;;;;;;;5.95;4.03;;;13.40;92.40;;;;;;2047830;29;20114;-95
2022/05/20 02:28:43;;;;;;;6.18;3.88;;;13.40;92.40;;;;;;2042890;29;20047;-94
2022/05/20 02:30:25;;;;;;;6.93;4.22;;;13.40;92.40;;;;;;2046338;28;20032;-95
2022/05/20 02:32:06;;;;;;;5.68;3.80;;;13.40;92.40;;;;;;2051754;28;20039;-94
2022/05/20 02:33:27;;;;;;;6.70;4.03;;;13.40;92.40;;;;;;2049768;28;20055;-94
2022/05/20 02:34:48;;;;;;;6.03;4.07;;;13.40;92.40;;;;;;2050342;29;20121;-95
2022/05/20 02:36:15;;;;;;;;;;;13.30;92.40;;;;;;2053515;28;20034;-94
2022/05/20 02:37:37;;;;;;;5.90;3.30;;;13.30;92.40;;;;;;2065869;28;19909;-94
2022/05/20 02:38:57;;;;;;;4.97;3.33;;;13.40;92.40;;;;;;2053510;28;20047;-94
2022/05/20 02:40:19;;;;;;;6.50;4.18;;;13.30;92.40;;;;;;2042391;28;20043;-94
2022/05/20 02:41:38;;;;;;;5.55;3.70;;;13.30;92.40;;;;;;2053581;28;20121;-94
2022/05/20 02:42:57;;;;;;;6.20;3.95;;;13.30;92.40;;;;;;2048209;28;20043;-95
2022/05/20 02:44:17;;;;;;;6.38;3.78;;;13.30;92.40;;;;;;2046827;28;20114;-94
2022/05/20 02:45:38;;;;;;;6.75;4.10;;;13.30;92.40;;;;;;2045947;29;20039;-95
2022/05/20 02:46:57;;;;;;;4.78;3.65;;;13.30;92.40;;;;;;2048329;28;20039;-93
2022/05/20 02:48:19;;;;;;;5.90;3.90;;;13.30;92.40;;;;;;2063269;28;20023;-95
2022/05/20 02:49:38;;;;;;;5.90;4.18;;;13.30;92.50;;;;;;2051616;29;20103;-95
2022/05/20 02:50:58;;;;;;;6.38;4.30;;;13.30;92.50;;;;;;2056470;28;20043;-94
2022/05/20 02:52:18;;;;;;;6.20;4.35;;;13.30;92.50;;;;;;2058995;28;20495;-94
2022/05/20 02:53:37;;;;;;;5.70;4.13;;;13.30;92.50;;;;;;2052310;28;20040;-95
2022/05/20 02:54:57;;;;;;;5.65;4.20;;;13.30;92.50;;;;;;2036962;29;20040;-95
2022/05/20 02:56:16;;;;;;;5.68;4.22;;;13.30;92.50;;;;;;2054729;28;20035;-94
2022/05/20 02:57:36;;;;;;;5.97;4.07;;;13.30;92.50;;;;;;2051455;28;20516;-94
2022/05/20 03:05:28;;;;;;;6.72;4.57;;;13.20;92.50;;;;;;2063592;28;20034;-95
2022/05/20 03:06:50;;;;;;;6.13;3.95;;;13.20;92.60;;;;;;2049585;29;20084;-95
2022/05/20 03:08:10;;;;;;;7.05;4.72;;;13.20;92.60;;;;;;2057340;28;20054;-95
2022/05/20 03:09:29;;;;;;;6.68;4.13;;;13.10;92.60;;;;;;2054703;28;20034;-95
2022/05/20 03:10:49;;;;;;;6.53;4.28;;;13.10;92.70;;;;;;2041945;29;20048;-95
2022/05/20 03:12:10;;;;;;;6.10;4.05;;;13.10;92.70;;;;;;2046399;28;20031;-93
2022/05/20 03:13:30;;;;;;;6.45;4.50;;;13.10;92.70;;;;;;2047391;29;20043;-95
2022/05/20 03:14:49;;;;;;;7.45;4.03;;;13.10;92.70;;;;;;2051842;28;20038;-95
2022/05/20 03:16:08;;;;;;;6.18;4.07;;;13.10;92.70;;;;;;2045274;29;20040;-95
2022/05/20 03:17:27;;;;;;;6.05;4.10;;;13.10;92.70;;;;;;2042256;29;20060;-94
2022/05/20 03:18:46;;;;;;;6.93;4.45;;;13.10;92.70;;;;;;2046626;28;20523;-94
2022/05/20 03:20:08;;;;;;;6.82;4.53;;;13.10;92.60;;;;;;2049924;29;20058;-95
2022/05/20 03:21:28;;;;;;;5.72;4.38;;;13.10;92.60;;;;;;2057624;28;20043;-94
2022/05/20 03:22:47;;;;;;;6.88;4.55;;;13.10;92.70;;;;;;2056339;28;20043;-95
2022/05/20 03:24:07;;;;;;;6.43;4.25;;;13.00;92.70;;;;;;2045679;28;20044;-95
2022/05/20 03:25:27;;;;;;;6.80;4.57;;;13.10;92.70;;;;;;2050246;28;20487;-94
2022/05/20 03:26:46;;;;;;;6.55;4.55;;;13.10;92.70;;;;;;2045337;29;20052;-95
2022/05/20 03:28:06;;;;;;;7.57;4.70;;;13.00;92.70;;;;;;2050327;28;20114;-94
2022/05/20 03:29:26;;;;;;;7.13;5.00;;;13.00;92.70;;;;;;2037627;29;20402;-95
2022/05/20 03:30:45;;;;;;;6.22;4.43;;;13.00;92.70;;;;;;2057204;28;20034;-95
2022/05/20 03:32:04;;;;;;;7.40;5.05;;;13.00;92.70;;;;;;2057194;28;20038;-95
2022/05/20 03:33:24;;;;;;;7.00;4.80;;;13.00;92.70;;;;;;2040667;29;20036;-96
2022/05/20 03:34:43;;;;;;;7.95;5.03;;;13.00;92.70;;;;;;2044033;29;20063;-94
2022/05/20 03:36:04;;;;;;;6.60;4.90;;;13.00;92.80;;;;;;2050310;29;20075;-95
2022/05/20 03:37:24;;;;;;;6.97;4.82;;;13.00;92.80;;;;;;2040903;29;20047;-95
2022/05/20 03:38:44;;;;;;;7.53;5.65;;;12.90;92.80;;;;;;2056029;28;20051;-95
2022/05/20 03:40:04;;;;;;;7.70;5.13;;;12.90;92.80;;;;;;2051914;28;20043;-95
2022/05/20 03:41:24;;;;;;;6.90;4.95;;;12.90;92.80;;;;;;2056236;28;20038;-95
2022/05/20 03:42:43;;;;;;;6.30;4.45;;;12.90;92.90;;;;;;2056855;28;20046;-94
2022/05/20 03:44:03;;;;;;;6.82;4.40;;;12.90;92.90;;;;;;2050308;28;20051;-95
2022/05/20 03:45:23;;;;;;;;;;;12.90;92.90;;;;;;2049470;29;20047;-96
2022/05/20 03:46:53;;;;;;;6.25;4.18;;;12.80;92.90;;;;;;2058531;28;19918;-95
2022/05/20 03:48:13;;;;;;;6.88;4.75;;;12.80;92.90;;;;;;2052487;29;20043;-94
2022/05/20 03:49:32;;;;;;;6.63;4.53;;;12.80;92.90;;;;;;2050971;28;20427;-95
2022/05/20 03:50:51;;;;;;;7.20;4.82;;;12.80;92.90;;;;;;2052274;29;20039;-94
2022/05/20 03:52:11;;;;;;;7.90;4.93;;;12.80;93.00;;;;;;2056454;29;20090;-95
2022/05/20 03:53:30;;;;;;;6.20;4.20;;;12.80;93.00;;;;;;2061654;28;20031;-95
2022/05/20 03:54:50;;;;;;;6.40;4.65;;;12.80;92.90;;;;;;2059945;28;20040;-96
2022/05/20 03:56:09;;;;;;;7.80;4.65;;;12.80;92.90;;;;;;2059214;28;20032;-94
2022/05/20 03:57:29;;;;;;;6.30;4.70;;;12.90;92.90;;;;;;2057296;28;20023;-95
2022/05/20 03:58:48;;;;;;;5.88;4.18;;;12.90;92.90;;;;;;2054955;28;20062;-94
2022/05/20 04:00:08;;;;;;;7.53;5.00;;;12.90;92.90;;;;;;2040013;29;20477;-95
2022/05/20 04:03:05;;;;;;;6.32;4.60;;;13.00;92.90;;;;;;2051054;29;20117;-95
2022/05/20 04:04:33;;;;;;;6.13;4.70;;;13.00;92.80;;;;;;2053946;28;20054;-95
2022/05/20 04:05:54;;;;;;;7.32;4.82;;;13.00;92.80;;;;;;2059454;28;20042;-94
2022/05/20 04:07:19;;;;;;;6.35;5.00;;;13.00;92.80;;;;;;2055092;28;20035;-95
2022/05/20 04:08:39;;;;;;;7.10;4.53;;;13.00;92.80;;;;;;2048797;29;20035;-96
2022/05/20 04:09:58;;;;;;;6.47;5.07;;;13.00;92.80;;;;;;2059349;28;20039;-95
2022/05/20 04:11:18;;;;;;;7.03;4.93;;;13.00;92.80;;;;;;2051859;29;20515;-94
2022/05/20 04:12:41;;;;;;;7.45;5.00;;;13.10;92.80;;;;;;2060206;28;20086;-95
2022/05/20 04:14:01;;;;;;;6.63;4.70;;;13.10;92.80;;;;;;2059368;28;20035;-94
2022/05/20 04:15:20;;;;;;;6.07;4.63;;;13.10;92.80;;;;;;2055107;28;20066;-95
2022/05/20 04:16:40;;;;;;;6.78;4.68;;;13.10;92.80;;;;;;2055858;28;20043;-95
2022/05/20 04:17:59;;;;;;;7.25;5.22;;;13.10;92.80;;;;;;2063588;28;20049;-94
2022/05/20 04:19:18;;;;;;;6.85;4.93;;;13.10;92.80;;;;;;2051698;29;20039;-95
2022/05/20 04:20:38;;;;;;;6.65;5.00;;;13.10;92.80;;;;;;2049671;29;20047;-94
2022/05/20 04:22:01;;;;;;;6.28;4.85;;;13.10;93.10;;;;;;2056830;28;20043;-95
2022/05/20 04:23:20;;;;;;;6.80;4.72;;;13.10;92.80;;;;;;2053461;28;20046;-95
2022/05/20 04:24:39;;;;;;;7.03;4.45;;;13.10;92.80;;;;;;2052083;29;20047;-94
2022/05/20 04:25:58;;;;;;;7.85;5.15;;;13.20;92.80;;;;;;2061569;28;20042;-94
2022/05/20 04:27:17;;;;;;;6.90;5.18;;;13.20;92.80;;;;;;2050486;28;20047;-96
2022/05/20 04:28:37;;;;;;;7.38;5.10;;;13.20;92.80;;;;;;2048480;28;20046;-96
2022/05/20 04:29:57;;;;;;;5.85;4.57;;;13.20;92.80;;;;;;2064743;28;20113;-95
2022/05/20 04:31:16;;;;;;;6.57;4.97;;;13.20;92.80;;;;;;2067335;28;20026;-95
2022/05/20 04:32:35;;;;;;;7.38;4.93;;;13.20;92.80;;;;;;2061599;28;20034;-95
2022/05/20 04:33:54;;;;;;;7.32;5.22;;;13.20;92.80;;;;;;2050977;28;20122;-94
2022/05/20 04:35:14;;;;;;;7.65;5.20;;;13.20;92.80;;;;;;2037682;29;20047;-94
2022/05/20 04:36:33;;;;;;;8.85;5.40;;;13.20;92.80;;;;;;2037499;29;20043;-95
2022/05/20 04:37:52;;;;;;;7.15;5.00;;;13.20;92.80;;;;;;2059376;28;20039;-96
2022/05/20 04:39:12;;;;;;;7.10;5.15;;;13.30;92.80;;;;;;2061156;28;20149;-95
2022/05/20 04:40:31;;;;;;;7.65;5.00;;;13.30;92.80;;;;;;2051214;29;20039;-94
2022/05/20 04:46:57;;;;;;;7.40;4.80;;;13.30;92.70;;;;;;2054025;28;20110;-95
2022/05/20 04:48:17;;;;;;;6.30;4.90;;;13.30;92.70;;;;;;2057350;28;20607;-95
2022/05/20 04:49:40;;;;;;;7.68;5.00;;;13.30;92.70;;;;;;2047230;28;20039;-95
2022/05/20 04:50:59;;;;;;;6.82;4.80;;;13.30;92.70;;;;;;2048478;29;20027;-95
2022/05/20 04:52:19;;;;;;;8.48;5.40;;;13.30;92.80;;;;;;2043645;28;20110;-95
2022/05/20 04:55:16;;;;;;;7.47;5.05;;;13.40;92.80;;;;;;2061372;28;20523;-95
2022/05/20 04:56:35;;;;;;;7.50;5.05;;;13.40;92.80;;;;;;2058458;28;20035;-95
2022/05/20 04:57:55;;;;;;;7.18;5.50;;;13.40;92.80;;;;;;2048496;28;20035;-95
2022/05/20 04:59:14;;;;;;;8.20;5.82;;;13.40;92.80;;;;;;2062391;28;20042;-95
2022/05/20 05:00:33;;;;;;;8.13;5.80;;;13.40;92.80;;;;;;2057857;28;20035;-94
2022/05/20 05:01:53;;;;;;;8.35;5.28;;;13.50;92.90;;;;;;2048223;29;20039;-94
2022/05/20 05:03:12;;;;;;;7.05;5.45;;;13.50;92.80;;;;;;2043261;29;20562;-95
2022/05/20 05:04:31;;;;;;;7.22;5.32;;;13.60;92.80;;;;;;2046353;28;20043;-95
2022/05/20 05:05:50;;;;;;;9.05;5.75;;;13.60;92.80;;;;;;2061816;28;20062;-94
2022/05/20 05:07:11;;;;;;;6.88;5.68;;;13.70;92.80;;;;;;2053639;28;20035;-94
2022/05/20 05:08:30;;;;;;;;;;;13.80;92.80;;;;;;2061759;28;20042;-94
2022/05/20 05:09:51;;;;;;;6.95;5.07;;;13.90;92.70;;;;;;2058777;28;19914;-94
2022/05/20 05:11:11;;;;;;;;;;;14.00;92.60;;;;;;2051846;29;20106;-94
2022/05/20 05:12:30;;;;;;;7.45;5.00;;;14.00;92.40;;;;;;2052438;28;20294;-93
2022/05/20 05:13:49;;;;;;;7.25;5.43;;;14.10;92.60;;;;;;2055860;28;20488;-94
2022/05/20 05:15:10;;;;;;;8.30;6.05;;;14.20;92.30;;;;;;2055448;28;20052;-94
2022/05/20 05:16:30;;;;;;;8.38;6.05;;;14.30;92.20;;;;;;2064280;28;20097;-93
2022/05/20 05:19:27;;;;;;;8.73;6.90;;;14.30;92.10;;;;;;2064475;28;20285;-94
2022/05/20 05:20:50;;;;;;;9.52;6.97;;;14.40;92.10;;;;;;2058843;28;20051;-94
2022/05/20 05:22:09;;;;;;;9.40;6.90;;;14.40;92.00;;;;;;2060185;28;20121;-94
2022/05/20 05:23:28;;;;;;;11.27;6.80;;;14.50;92.00;;;;;;2054561;28;20039;-94
2022/05/20 05:24:48;;;;;;;10.35;6.88;;;14.50;92.00;;;;;;2043937;28;20039;-95
2022/05/20 05:26:07;;;;;;;7.95;6.32;;;14.60;91.90;;;;;;2054858;28;20047;-94
2022/05/20 05:27:26;;;;;;;9.70;7.15;;;14.70;91.90;;;;;;2055557;28;20043;-95
2022/05/20 05:28:46;;;;;;;8.90;6.90;;;14.80;91.80;;;;;;2063515;28;20438;-94
2022/05/20 05:30:07;;;;;;;9.52;6.93;;;14.90;91.70;;;;;;2050867;29;20433;-96
2022/05/20 05:31:27;;;;;;;;;;;14.90;91.70;;;;;;2051466;28;20035;-94
2022/05/20 05:32:46;;;;;;;10.07;6.22;;;15.00;91.60;;;;;;2056406;28;19911;-94
2022/05/20 05:34:05;;;;;;;9.10;6.45;;;15.10;91.50;;;;;;2043464;29;20032;-94
2022/05/20 05:35:27;;;;;;;9.05;6.50;;;15.10;91.40;;;;;;2052743;28;20023;-94
2022/05/20 05:36:46;;;;;;;9.88;6.70;;;15.20;91.40;;;;;;2053311;28;20035;-94
2022/05/20 05:38:06;;;;;;;9.30;7.00;;;15.30;91.40;;;;;;2055301;28;20051;-94
2022/05/20 05:39:25;;;;;;;10.07;7.28;;;15.30;91.30;;;;;;2038564;29;20111;-94
2022/05/20 05:40:44;;;;;;;10.88;7.40;;;15.40;91.30;;;;;;2051343;28;20427;-95
2022/05/20 05:42:04;;;;;;;9.32;7.20;;;15.50;91.30;;;;;;2038396;29;20048;-94
2022/05/20 05:43:24;;;;;;;9.63;6.60;;;15.50;91.20;;;;;;2040063;29;20118;-94
2022/05/20 05:44:44;;;;;;;10.43;7.80;;;15.60;91.10;;;;;;2051198;28;20435;-94
2022/05/20 05:46:04;;;;;;;9.75;7.28;;;15.60;91.10;;;;;;2052030;29;20043;-94
2022/05/20 05:47:23;;;;;;;9.40;7.10;;;15.60;91.00;;;;;;2054915;28;20042;-94
2022/05/20 05:48:43;;;;;;;9.85;7.40;;;15.70;91.00;;;;;;2059442;28;20039;-95
2022/05/20 05:50:02;;;;;;;8.68;6.57;;;15.70;91.00;;;;;;2054594;28;20035;-94
2022/05/20 05:51:22;;;;;;;10.73;7.03;;;15.70;91.00;;;;;;2051145;29;20043;-94
2022/05/20 05:52:41;;;;;;;8.95;6.78;;;15.70;90.90;;;;;;2043193;29;20048;-92
2022/05/20 05:54:01;;;;;;;9.55;6.63;;;15.80;90.90;;;;;;2047797;29;20444;-94
2022/05/20 05:55:20;;;;;;;9.13;6.47;;;15.90;90.80;;;;;;2047853;29;20032;-94
2022/05/20 05:56:39;;;;;;;9.43;6.55;;;16.00;90.80;;;;;;2040291;29;20114;-92
2022/05/20 05:57:59;;;;;;;8.55;5.93;;;16.10;90.70;;;;;;2040425;29;20047;-94
2022/05/20 05:59:18;;;;;;;8.15;5.72;;;16.10;90.60;;;;;;2033965;29;20056;-96
2022/05/20 06:00:38;;;;;;;7.65;5.50;;;16.20;90.50;;;;;;2046293;28;20054;-94
2022/05/20 06:02:02;;;;;;;8.93;5.43;;;16.20;90.40;;;;;;2041314;29;20056;-95
2022/05/20 06:03:22;;;;;;;8.52;5.40;;;16.30;90.30;;;;;;2052744;28;20507;-95
2022/05/20 06:04:42;;;;;;;6.97;4.80;;;16.30;90.20;;;;;;2046115;29;20035;-94
2022/05/20 06:06:03;;;;;;;6.78;4.90;;;16.30;90.10;;;;;;2054654;28;20038;-95
2022/05/20 06:07:23;;;;;;;7.57;4.95;;;16.40;90.00;;;;;;2042244;29;20036;-94
2022/05/20 06:08:42;;;;;;;6.80;4.50;;;16.40;90.00;;;;;;2044101;29;20048;-94
2022/05/20 06:10:01;;;;;;;6.43;4.60;;;16.40;89.90;;;;;;2040126;29;20035;-92
2022/05/20 06:11:21;;;;;;;7.95;4.95;;;16.40;89.80;;;;;;2047755;29;20035;-95
2022/05/20 06:12:40;;;;;;;6.65;4.68;;;16.50;89.60;;;;;;2048243;28;20044;-94
2022/05/20 06:13:59;;;;;;;7.25;4.93;;;16.50;89.40;;;;;;2039889;29;20484;-95
2022/05/20 06:15:22;;;;;;;7.03;5.30;;;16.40;89.30;;;;;;2047042;28;20043;-95
2022/05/20 06:16:41;;;;;;;8.25;5.72;;;16.40;89.20;;;;;;2035183;29;20505;-94
2022/05/20 06:18:00;;;;;;;8.23;5.55;;;16.40;89.20;;;;;;2046377;29;20047;-95
2022/05/20 06:19:20;;;;;;;8.38;4.97;;;16.40;89.10;;;;;;2042742;29;20540;-93
2022/05/20 06:20:40;;;;;;;7.90;5.40;;;16.30;89.10;;;;;;2047719;29;20051;-92
2022/05/20 06:21:59;;;;;;;8.82;5.57;;;16.30;89.00;;;;;;2041040;29;20056;-94
2022/05/20 06:23:19;;;;;;;8.32;5.60;;;16.40;89.00;;;;;;2046811;29;20035;-94
2022/05/20 06:24:38;;;;;;;8.75;5.40;;;16.40;89.00;;;;;;2042042;29;20055;-94
2022/05/20 06:25:58;;;;;;;8.18;5.18;;;16.40;88.90;;;;;;2037944;29;20035;-94
2022/05/20 06:27:17;;;;;;;8.85;5.18;;;16.40;88.80;;;;;;2044490;28;20055;-94
2022/05/20 06:28:36;;;;;;;7.78;4.82;;;16.50;88.70;;;;;;2043282;29;20047;-94
2022/05/20 06:29:56;;;;;;;7.93;5.50;;;16.50;88.60;;;;;;2041635;29;20063;-94
2022/05/20 06:31:15;;;;;;;8.98;5.60;;;16.60;88.60;;;;;;2045819;29;20039;-95
2022/05/20 06:32:35;;;;;;;8.18;5.28;;;16.60;88.30;;;;;;2048115;28;20019;-94
2022/05/20 06:33:57;;;;;;;8.88;5.30;;;16.60;88.20;;;;;;2055341;28;20035;-94
2022/05/20 06:40:16;;;;;;;7.50;4.82;;;16.80;87.80;;;;;;2059235;28;20387;-94
2022/05/20 06:41:35;;;;;;;8.45;5.95;;;16.90;87.50;;;;;;2056983;28;20106;-94
2022/05/20 06:42:54;;;;;;;7.40;5.30;;;16.90;87.30;;;;;;2043078;29;20084;-94
2022/05/20 06:44:15;;;;;;;7.93;5.15;;;16.90;87.40;;;;;;2043748;29;20093;-94
2022/05/20 06:45:35;;;;;;;7.78;4.90;;;17.00;87.50;;;;;;2042242;29;20052;-94
2022/05/20 06:46:54;;;;;;;6.93;4.53;;;17.10;87.50;;;;;;2042301;28;20116;-94
2022/05/20 06:48:14;;;;;;;9.10;4.80;;;17.20;87.30;;;;;;2037873;29;20028;-94
2022/05/20 06:49:33;;;;;;;8.32;5.30;;;17.20;86.90;;;;;;2052479;28;20047;-93
2022/05/20 06:50:53;;;;;;;6.80;5.07;;;17.20;86.90;;;;;;2041249;29;20047;-93
2022/05/20 06:52:13;;;;;;;6.40;4.65;;;17.20;86.80;;;;;;2034198;29;20052;-95
2022/05/20 06:53:33;;;;;;;;;;;17.20;86.80;;;;;;2046663;28;20117;-94
2022/05/20 06:54:52;;;;;;;6.55;4.22;;;17.10;86.90;;;;;;2047541;29;19910;-95
2022/05/20 06:56:13;;;;;;;8.02;4.32;;;17.20;87.10;;;;;;2049700;29;20512;-94
2022/05/20 06:57:37;;;;;;;9.10;4.47;;;17.20;87.00;;;;;;2046448;28;20039;-94
2022/05/20 06:58:59;;;;;;;6.80;4.80;;;17.20;86.90;;;;;;2045061;28;20126;-94
2022/05/20 07:00:18;;;;;;;7.43;5.30;;;17.30;86.80;;;;;;2047324;29;20472;-94
2022/05/20 07:01:38;;;;;;;7.75;4.63;;;17.30;86.40;;;;;;2049808;29;20512;-93
2022/05/20 07:02:57;;;;;;;7.47;4.70;;;17.30;86.10;;;;;;2042073;29;20036;-94
2022/05/20 07:04:16;;;;;;;8.48;4.88;;;17.30;86.00;;;;;;2054892;28;20039;-94
2022/05/20 07:05:36;;;;;;;7.28;4.75;;;17.40;86.00;;;;;;2032740;29;20124;-94
2022/05/20 07:06:59;;;;;;;6.45;4.32;;;17.40;85.90;;;;;;2048556;28;20071;-94
2022/05/20 07:08:19;;;;;;;6.28;3.88;;;17.40;85.80;;;;;;2035683;29;20037;-94
2022/05/20 07:09:38;;;;;;;7.22;4.50;;;17.50;85.80;;;;;;2047831;28;20059;-94
2022/05/20 07:11:01;;;;;;;6.75;4.13;;;17.60;85.60;;;;;;2055520;28;20042;-94
2022/05/20 07:12:21;;;;;;;6.95;3.83;;;17.60;85.40;;;;;;2049952;29;20118;-94
2022/05/20 07:13:41;;;;;;;6.57;4.38;;;17.70;85.20;;;;;;2050089;29;20031;-93
2022/05/20 07:15:00;;;;;;;6.65;3.90;;;17.80;85.00;;;;;;2047232;29;20387;-91
2022/05/20 07:16:19;;;;;;;6.15;3.88;;;17.80;84.90;;;;;;2044339;29;20031;-93
2022/05/20 07:17:39;;;;;;;7.43;3.95;;;17.90;84.80;;;;;;2046710;28;20067;-91
2022/05/20 07:18:59;;;;;;;5.05;3.05;;;18.00;84.70;;;;;;2054636;28;20042;-94
2022/05/20 07:20:18;;;;;;;6.05;3.60;;;18.10;84.50;;;;;;2037275;29;20512;-93
2022/05/20 07:21:37;;;;;;;5.47;3.72;;;18.10;84.30;;;;;;2043701;29;20530;-92
2022/05/20 07:22:56;;;;;;;4.82;3.38;;;18.20;84.20;;;;;;2033601;29;20052;-93
2022/05/20 07:24:15;;;;;;;5.72;3.38;;;18.40;84.10;;;;;;2043696;29;20462;-95
2022/05/20 07:25:37;;;;;;;5.70;3.80;;;18.40;83.90;;;;;;2045679;28;20113;-93
2022/05/20 07:26:56;;;;;;;6.65;3.80;;;18.40;83.80;;;;;;2050412;28;20117;-94